createdAt,value
2023-07-02T00:00:17.012Z,8
2023-07-02T00:05:16.747Z,10
2023-07-02T00:10:16.842Z,10
2023-07-02T00:15:16.939Z,10
2023-07-02T00:20:17.030Z,9
2023-07-02T00:25:16.811Z,11
2023-07-02T00:30:16.801Z,12
2023-07-02T00:35:17.019Z,12
2023-07-02T00:40:16.918Z,11
2023-07-02T00:45:16.950Z,12
2023-07-02T00:50:17.207Z,13
2023-07-02T00:55:16.995Z,12
2023-07-02T01:00:16.879Z,13
2023-07-02T01:05:17.411Z,11
2023-07-02T01:10:17.051Z,10
2023-07-02T01:15:16.999Z,8
2023-07-02T01:20:16.970Z,9
2023-07-02T01:25:16.997Z,12
2023-07-02T01:30:17.108Z,11
2023-07-02T01:35:17.022Z,11
2023-07-02T01:40:17.096Z,12
2023-07-02T01:45:16.980Z,14
2023-07-02T01:50:17.274Z,12
2023-07-02T01:55:16.995Z,10
2023-07-02T02:00:16.999Z,14
2023-07-02T02:05:20.311Z,16
2023-07-02T02:10:17.017Z,16
2023-07-02T02:15:17.085Z,15
2023-07-02T02:20:17.076Z,15
2023-07-02T02:25:17.202Z,14
2023-07-02T02:30:17.110Z,16
2023-07-02T02:35:17.221Z,12
2023-07-02T02:40:17.165Z,15
2023-07-02T02:45:17.110Z,12
2023-07-02T02:50:17.306Z,10
2023-07-02T02:55:17.324Z,9
2023-07-02T03:00:17.463Z,11
2023-07-02T03:05:17.339Z,10
2023-07-02T03:10:17.247Z,9
2023-07-02T03:15:17.152Z,7
2023-07-02T03:20:17.162Z,7
2023-07-02T03:25:17.192Z,8
2023-07-02T03:30:17.201Z,8
2023-07-02T03:35:17.255Z,9
2023-07-02T03:40:17.280Z,7
2023-07-02T03:45:17.221Z,5
2023-07-02T03:50:17.221Z,4
2023-07-02T03:55:17.338Z,4
2023-07-02T04:00:16.362Z,3
2023-07-02T04:05:16.248Z,3
2023-07-02T04:10:16.695Z,5
2023-07-02T04:15:16.313Z,5
2023-07-02T04:20:16.358Z,7
2023-07-02T04:25:29.387Z,6
2023-07-02T04:30:16.368Z,7
2023-07-02T04:35:16.424Z,7
2023-07-02T04:40:16.525Z,7
2023-07-02T04:45:18.005Z,8
2023-07-02T04:50:16.863Z,7
2023-07-02T04:55:16.385Z,8
2023-07-02T05:00:16.526Z,9
2023-07-02T05:05:16.782Z,9
2023-07-02T05:10:16.767Z,10
2023-07-02T05:15:16.417Z,10
2023-07-02T05:20:16.505Z,10
2023-07-02T05:25:16.510Z,10
2023-07-02T05:30:16.585Z,10
2023-07-02T05:35:16.649Z,9
2023-07-02T05:40:17.661Z,9
2023-07-02T05:45:16.688Z,9
2023-07-02T05:50:16.608Z,10
2023-07-02T05:55:16.511Z,10
2023-07-02T06:00:16.651Z,8
2023-07-02T06:05:16.943Z,8
2023-07-02T06:10:16.552Z,9
2023-07-02T06:15:16.714Z,8
2023-07-02T06:20:16.646Z,8
2023-07-02T06:25:16.746Z,8
2023-07-02T06:30:16.806Z,8
2023-07-02T06:35:16.657Z,7
2023-07-02T06:40:16.734Z,7
2023-07-02T06:45:16.662Z,9
2023-07-02T06:50:16.824Z,10
2023-07-02T06:55:16.658Z,9
2023-07-02T07:00:16.753Z,8
2023-07-02T07:05:16.707Z,8
2023-07-02T07:10:16.875Z,8
2023-07-02T07:15:16.735Z,8
2023-07-02T07:20:16.802Z,8
2023-07-02T07:25:18.329Z,7
2023-07-02T07:30:16.715Z,9
2023-07-02T07:35:16.801Z,9
2023-07-02T07:40:16.801Z,9
2023-07-02T07:45:16.800Z,8
2023-07-02T07:50:16.774Z,9
2023-07-02T07:55:16.909Z,10
2023-07-02T08:00:16.819Z,9
2023-07-02T08:05:16.752Z,8
2023-07-02T08:10:16.857Z,9
2023-07-02T08:15:16.877Z,9
2023-07-02T08:20:16.845Z,7
2023-07-02T08:25:17.016Z,7
2023-07-02T08:30:16.974Z,6
2023-07-02T08:35:16.956Z,6
2023-07-02T08:40:16.871Z,6
2023-07-02T08:45:16.934Z,7
2023-07-02T08:50:16.954Z,8
2023-07-02T08:55:17.020Z,7
2023-07-02T09:00:17.039Z,8
2023-07-02T09:05:16.989Z,8
2023-07-02T09:10:17.068Z,9
2023-07-02T09:15:17.150Z,8
2023-07-02T09:20:16.991Z,7
2023-07-02T09:25:17.041Z,9
2023-07-02T09:30:17.437Z,10
2023-07-02T09:35:17.225Z,9
2023-07-02T09:40:17.175Z,10
2023-07-02T09:45:17.197Z,9
2023-07-02T09:50:17.213Z,9
2023-07-02T09:55:17.030Z,9
2023-07-02T10:00:17.223Z,9
2023-07-02T10:05:17.164Z,9
2023-07-02T10:10:19.287Z,8
2023-07-02T10:15:17.200Z,9
2023-07-02T10:20:17.625Z,9
2023-07-02T10:25:17.421Z,9
2023-07-02T10:30:17.199Z,9
2023-07-02T10:35:17.356Z,9
2023-07-02T10:40:17.134Z,7
2023-07-02T10:45:17.214Z,7
2023-07-02T10:50:17.319Z,9
2023-07-02T10:55:17.220Z,8
2023-07-02T11:00:17.261Z,7
2023-07-02T11:05:17.427Z,9
2023-07-02T11:10:17.262Z,8
2023-07-02T11:15:17.371Z,8
2023-07-02T11:20:17.355Z,8
2023-07-02T11:25:17.274Z,9
2023-07-02T11:30:17.258Z,9
2023-07-02T11:35:17.312Z,9
2023-07-02T11:40:17.311Z,10
2023-07-02T11:45:17.342Z,10
2023-07-02T11:50:26.143Z,11
2023-07-02T11:55:15.624Z,10
2023-07-02T12:00:17.730Z,9
2023-07-02T12:05:20.547Z,7
2023-07-02T12:10:17.445Z,8
2023-07-02T12:15:15.511Z,8
2023-07-02T12:20:15.863Z,8
2023-07-02T12:25:15.535Z,7
2023-07-02T12:30:15.473Z,7
2023-07-02T12:35:15.701Z,5
2023-07-02T12:40:15.535Z,7
2023-07-02T12:45:16.251Z,6
2023-07-02T12:50:15.525Z,6
2023-07-02T12:55:15.759Z,7
2023-07-02T13:00:15.538Z,8
2023-07-02T13:05:15.637Z,5
2023-07-02T13:10:15.510Z,5
2023-07-02T13:15:15.537Z,4
2023-07-02T13:20:15.566Z,4
2023-07-02T13:25:15.536Z,4
2023-07-02T13:30:15.502Z,4
2023-07-02T13:35:15.622Z,5
2023-07-02T13:40:15.792Z,5
2023-07-02T13:45:15.553Z,8
2023-07-02T13:50:15.758Z,8
2023-07-02T13:55:15.643Z,7
2023-07-02T14:00:15.591Z,5
2023-07-02T14:05:15.536Z,5
2023-07-02T14:10:15.640Z,6
2023-07-02T14:15:15.671Z,7
2023-07-02T14:20:15.690Z,7
2023-07-02T14:25:24.955Z,7
2023-07-02T14:30:15.849Z,8
2023-07-02T14:35:15.728Z,8
2023-07-02T14:40:15.798Z,9
2023-07-02T14:45:15.751Z,7
2023-07-02T14:50:18.939Z,9
2023-07-02T14:55:15.819Z,8
2023-07-02T15:00:15.804Z,8
2023-07-02T15:05:15.865Z,7
2023-07-02T15:10:15.839Z,5
2023-07-02T15:15:15.892Z,5
2023-07-02T15:20:15.837Z,4
2023-07-02T15:25:15.913Z,3
2023-07-02T15:30:15.963Z,2
2023-07-02T15:35:15.857Z,7
2023-07-02T15:40:15.912Z,6
2023-07-02T15:45:15.867Z,7
2023-07-02T15:50:15.876Z,6
2023-07-02T15:55:15.853Z,5
2023-07-02T16:00:15.940Z,5
2023-07-02T16:05:16.133Z,4
2023-07-02T16:10:16.043Z,3
2023-07-02T16:15:15.889Z,6
2023-07-02T16:20:15.888Z,4
2023-07-02T16:25:15.953Z,4
2023-07-02T16:30:15.986Z,6
2023-07-02T16:35:16.024Z,6
2023-07-02T16:40:15.979Z,5
2023-07-02T16:45:16.053Z,7
2023-07-02T16:50:15.955Z,9
2023-07-02T16:55:16.163Z,9
2023-07-02T17:00:16.057Z,8
2023-07-02T17:05:16.031Z,10
2023-07-02T17:10:16.070Z,8
2023-07-02T17:15:16.070Z,11
2023-07-02T17:20:16.237Z,10
2023-07-02T17:25:16.157Z,12
2023-07-02T17:30:16.359Z,12
2023-07-02T17:35:16.104Z,13
2023-07-02T17:40:16.349Z,13
2023-07-02T17:45:17.620Z,11
2023-07-02T17:50:16.167Z,12
2023-07-02T17:55:16.099Z,12
2023-07-02T18:00:16.173Z,12
2023-07-02T18:05:16.271Z,11
2023-07-02T18:10:16.137Z,13
2023-07-02T18:15:16.423Z,13
2023-07-02T18:20:16.255Z,16
2023-07-02T18:25:16.195Z,15
2023-07-02T18:30:16.202Z,16
2023-07-02T18:35:16.451Z,16
2023-07-02T18:40:16.257Z,17
2023-07-02T18:45:16.312Z,17
2023-07-02T18:50:16.282Z,15
2023-07-02T18:55:16.321Z,16
2023-07-02T19:00:16.343Z,18
2023-07-02T19:05:16.335Z,18
2023-07-02T19:10:16.292Z,18
2023-07-02T19:15:16.355Z,20
2023-07-02T19:20:16.353Z,19
2023-07-02T19:25:16.423Z,19
2023-07-02T19:30:16.475Z,21
2023-07-02T19:35:16.356Z,21
2023-07-02T19:40:16.314Z,18
2023-07-02T19:45:17.092Z,21
2023-07-02T19:50:16.543Z,24
2023-07-02T19:55:16.424Z,24
2023-07-02T20:00:16.630Z,23
2023-07-02T20:05:16.528Z,28
2023-07-02T20:10:16.561Z,25
2023-07-02T20:15:16.467Z,28
2023-07-02T20:20:16.454Z,21
2023-07-02T20:25:47.846Z,25
2023-07-02T20:30:16.470Z,22
2023-07-02T20:35:16.543Z,17
2023-07-02T20:40:16.489Z,22
2023-07-02T20:45:16.638Z,21
2023-07-02T20:50:16.601Z,21
2023-07-02T20:55:16.524Z,17
2023-07-02T21:00:16.671Z,19
2023-07-02T21:05:16.611Z,19
2023-07-02T21:10:16.591Z,20
2023-07-02T21:15:16.559Z,20
2023-07-02T21:20:16.577Z,23
2023-07-02T21:25:16.606Z,22
2023-07-02T21:30:16.586Z,22
2023-07-02T21:35:16.672Z,22
2023-07-02T21:40:16.914Z,8
2023-07-02T21:45:16.642Z,5
2023-07-02T21:50:16.680Z,7
2023-07-02T21:55:16.602Z,7
2023-07-02T22:00:16.785Z,9
2023-07-02T22:05:16.973Z,10
2023-07-02T22:10:16.713Z,10
2023-07-02T22:15:16.755Z,11
2023-07-02T22:20:16.842Z,9
2023-07-02T22:25:16.853Z,8
2023-07-02T22:30:16.910Z,10
2023-07-02T22:35:16.732Z,9
2023-07-02T22:40:16.851Z,8
2023-07-02T22:45:16.788Z,9
2023-07-02T22:50:16.804Z,8
2023-07-02T22:55:16.950Z,8
2023-07-02T23:00:16.930Z,6
2023-07-02T23:05:16.930Z,7
2023-07-02T23:10:17.190Z,9
2023-07-02T23:15:16.883Z,7
2023-07-02T23:20:16.952Z,5
2023-07-02T23:25:17.096Z,4
2023-07-02T23:30:16.832Z,4
2023-07-02T23:35:16.869Z,4
2023-07-02T23:40:17.020Z,4
2023-07-02T23:45:16.990Z,4
2023-07-02T23:50:17.135Z,4
2023-07-02T23:55:16.945Z,2
